TimeEST,TemperatureF,Dew PointF,Humidity,Sea Level PressureIn,VisibilityMPH,Wind Direction,Wind SpeedMPH,Gust SpeedMPH,PrecipitationIn,Events,Conditions,WindDirDegrees,DateUTC
12:52 AM,37.9,23.0,55,30.25,10.0,SSW,12.7,23.0,N/A,,Clear,210,2013-01-19 05:52:00
1:52 AM,37.9,23.0,55,30.24,10.0,SSW,17.3,27.6,N/A,,Clear,200,2013-01-19 06:52:00
3:52 AM,37.9,24.1,57,30.22,10.0,SSW,13.8,-,N/A,,Clear,200,2013-01-19 08:52:00
4:52 AM,37.9,24.1,57,30.21,10.0,SSW,13.8,21.9,N/A,,Clear,200,2013-01-19 09:52:00
5:52 AM,37.0,24.1,59,30.22,10.0,SSW,11.5,-,N/A,,Clear,200,2013-01-19 10:52:00
7:52 AM,37.0,25.0,62,30.20,10.0,SSW,13.8,20.7,N/A,,Clear,200,2013-01-19 12:52:00
8:52 AM,37.9,25.0,60,30.21,10.0,SSW,11.5,-,N/A,,Clear,210,2013-01-19 13:52:00
9:52 AM,41.0,26.1,55,30.21,10.0,SSW,16.1,23.0,N/A,,Clear,210,2013-01-19 14:52:00
10:52 AM,45.0,27.0,49,30.19,10.0,SSW,12.7,24.2,N/A,,Clear,210,2013-01-19 15:52:00
12:52 PM,50.0,25.0,38,30.09,10.0,SW,15.0,26.5,N/A,,Clear,220,2013-01-19 17:52:00
1:52 PM,52.0,25.0,35,30.05,10.0,SSW,16.1,28.8,N/A,,Clear,200,2013-01-19 18:52:00
2:52 PM,53.1,25.0,34,30.01,10.0,SSW,19.6,27.6,N/A,,Clear,210,2013-01-19 19:52:00
3:52 PM,53.6,24.8,33,29.98,10.0,SSW,17.3,29.9,N/A,,Clear,200,2013-01-19 20:52:00
4:52 PM,53.1,24.1,32,29.96,10.0,SSW,19.6,35.7,N/A,,Partly Cloudy,200,2013-01-19 21:52:00
5:52 PM,50.0,24.1,36,29.95,10.0,SSW,19.6,25.3,N/A,,Partly Cloudy,200,2013-01-19 22:52:00
6:52 PM,50.0,25.0,38,29.94,10.0,SSW,15.0,25.3,N/A,,Partly Cloudy,200,2013-01-19 23:52:00
7:52 PM,48.9,26.1,41,29.96,10.0,SSW,15.0,24.2,N/A,,Partly Cloudy,210,2013-01-20 00:52:00
8:52 PM,48.0,27.0,44,29.96,10.0,SSW,16.1,25.3,N/A,,Clear,210,2013-01-20 01:52:00
9:52 PM,46.9,27.0,46,29.95,10.0,SSW,15.0,25.3,N/A,,Clear,210,2013-01-20 02:52:00
10:52 PM,46.0,27.0,47,29.95,10.0,SW,16.1,21.9,N/A,,Clear,220,2013-01-20 03:52:00
11:52 PM,46.0,27.0,47,29.95,10.0,SW,15.0,24.2,N/A,,Clear,230,2013-01-20 04:52:00